sensor_id;sensor_type;location;lat;lon;timestamp;P1;durP1;ratioP1;P2;durP2;ratioP2
33690;SDS011;20026;50.058;18.428;2023-04-15T00:01:52;152.68;;;71.32;;
33690;SDS011;20026;50.058;18.428;2023-04-15T00:04:18;164.98;;;82.63;;
33690;SDS011;20026;50.058;18.428;2023-04-15T00:06:51;206.55;;;94.82;;
33690;SDS011;20026;50.058;18.428;2023-04-15T00:09:17;152.20;;;73.25;;
33690;SDS011;20026;50.058;18.428;2023-04-15T00:11:44;199.45;;;92.90;;
33690;SDS011;20026;50.058;18.428;2023-04-15T00:14:10;168.95;;;86.10;;
33690;SDS011;20026;50.058;18.428;2023-04-15T00:16:37;237.25;;;104.85;;
33690;SDS011;20026;50.058;18.428;2023-04-15T00:19:03;168.00;;;83.53;;
33690;SDS011;20026;50.058;18.428;2023-04-15T00:21:29;158.70;;;79.13;;
33690;SDS011;20026;50.058;18.428;2023-04-15T00:23:55;157.35;;;75.70;;
33690;SDS011;20026;50.058;18.428;2023-04-15T00:26:21;166.02;;;80.32;;
33690;SDS011;20026;50.058;18.428;2023-04-15T00:28:47;182.57;;;87.32;;
33690;SDS011;20026;50.058;18.428;2023-04-15T00:31:13;394.42;;;165.60;;
33690;SDS011;20026;50.058;18.428;2023-04-15T00:33:39;156.82;;;74.03;;
33690;SDS011;20026;50.058;18.428;2023-04-15T00:36:05;119.38;;;53.47;;
33690;SDS011;20026;50.058;18.428;2023-04-15T00:38:32;140.43;;;58.22;;
33690;SDS011;20026;50.058;18.428;2023-04-15T00:40:58;73.93;;;36.67;;
33690;SDS011;20026;50.058;18.428;2023-04-15T00:43:24;163.07;;;70.00;;
33690;SDS011;20026;50.058;18.428;2023-04-15T00:45:51;407.05;;;170.10;;
33690;SDS011;20026;50.058;18.428;2023-04-15T00:48:18;80.10;;;39.85;;
33690;SDS011;20026;50.058;18.428;2023-04-15T00:50:46;81.30;;;43.22;;
33690;SDS011;20026;50.058;18.428;2023-04-15T00:53:13;71.68;;;38.03;;
33690;SDS011;20026;50.058;18.428;2023-04-15T00:55:39;59.88;;;34.75;;
33690;SDS011;20026;50.058;18.428;2023-04-15T00:58:05;63.75;;;33.67;;
33690;SDS011;20026;50.058;18.428;2023-04-15T01:00:31;76.07;;;40.70;;
33690;SDS011;20026;50.058;18.428;2023-04-15T01:02:57;89.45;;;43.22;;
33690;SDS011;20026;50.058;18.428;2023-04-15T01:05:23;82.90;;;43.05;;
33690;SDS011;20026;50.058;18.428;2023-04-15T01:07:49;75.45;;;41.15;;
33690;SDS011;20026;50.058;18.428;2023-04-15T01:10:15;68.93;;;39.30;;
33690;SDS011;20026;50.058;18.428;2023-04-15T01:12:41;74.70;;;41.05;;
33690;SDS011;20026;50.058;18.428;2023-04-15T01:15:07;72.55;;;38.08;;
33690;SDS011;20026;50.058;18.428;2023-04-15T01:17:34;67.60;;;37.72;;
33690;SDS011;20026;50.058;18.428;2023-04-15T01:20:01;65.28;;;35.78;;
33690;SDS011;20026;50.058;18.428;2023-04-15T01:22:29;62.50;;;33.15;;
33690;SDS011;20026;50.058;18.428;2023-04-15T01:25:05;41.65;;;22.48;;
33690;SDS011;20026;50.058;18.428;2023-04-15T01:27:34;156.07;;;64.73;;
33690;SDS011;20026;50.058;18.428;2023-04-15T01:30:00;53.78;;;26.27;;
33690;SDS011;20026;50.058;18.428;2023-04-15T01:32:29;109.40;;;48.38;;
33690;SDS011;20026;50.058;18.428;2023-04-15T01:34:55;65.47;;;32.50;;
33690;SDS011;20026;50.058;18.428;2023-04-15T01:37:21;58.72;;;30.55;;
33690;SDS011;20026;50.058;18.428;2023-04-15T01:39:47;67.68;;;33.13;;
33690;SDS011;20026;50.058;18.428;2023-04-15T01:42:13;62.15;;;32.38;;
33690;SDS011;20026;50.058;18.428;2023-04-15T01:44:39;55.53;;;28.65;;
33690;SDS011;20026;50.058;18.428;2023-04-15T01:47:05;48.38;;;26.25;;
33690;SDS011;20026;50.058;18.428;2023-04-15T01:49:31;50.13;;;27.08;;
33690;SDS011;20026;50.058;18.428;2023-04-15T01:51:57;68.57;;;35.35;;
33690;SDS011;20026;50.058;18.428;2023-04-15T01:54:23;86.78;;;42.65;;
33690;SDS011;20026;50.058;18.428;2023-04-15T01:56:49;73.97;;;37.22;;
33690;SDS011;20026;50.058;18.428;2023-04-15T01:59:16;55.10;;;29.65;;
33690;SDS011;20026;50.058;18.428;2023-04-15T02:01:42;38.63;;;20.45;;
33690;SDS011;20026;50.058;18.428;2023-04-15T02:04:09;34.05;;;17.80;;
33690;SDS011;20026;50.058;18.428;2023-04-15T02:06:42;38.00;;;22.77;;
33690;SDS011;20026;50.058;18.428;2023-04-15T02:09:08;37.60;;;20.83;;
33690;SDS011;20026;50.058;18.428;2023-04-15T02:11:34;35.33;;;20.35;;
33690;SDS011;20026;50.058;18.428;2023-04-15T02:14:01;26.15;;;16.00;;
33690;SDS011;20026;50.058;18.428;2023-04-15T02:16:31;21.88;;;13.35;;
33690;SDS011;20026;50.058;18.428;2023-04-15T02:18:57;16.40;;;10.13;;
33690;SDS011;20026;50.058;18.428;2023-04-15T02:21:24;13.73;;;8.23;;
33690;SDS011;20026;50.058;18.428;2023-04-15T02:23:50;11.85;;;7.47;;
33690;SDS011;20026;50.058;18.428;2023-04-15T02:26:18;9.63;;;7.00;;
33690;SDS011;20026;50.058;18.428;2023-04-15T02:28:44;12.20;;;6.80;;
33690;SDS011;20026;50.058;18.428;2023-04-15T02:31:10;13.77;;;7.28;;
33690;SDS011;20026;50.058;18.428;2023-04-15T02:33:36;10.15;;;6.28;;
33690;SDS011;20026;50.058;18.428;2023-04-15T02:36:02;10.77;;;6.72;;
33690;SDS011;20026;50.058;18.428;2023-04-15T02:38:28;10.38;;;6.32;;
33690;SDS011;20026;50.058;18.428;2023-04-15T02:40:55;11.40;;;6.20;;
33690;SDS011;20026;50.058;18.428;2023-04-15T02:43:22;11.73;;;6.35;;
33690;SDS011;20026;50.058;18.428;2023-04-15T02:45:48;14.80;;;9.02;;
33690;SDS011;20026;50.058;18.428;2023-04-15T02:48:15;9.30;;;5.80;;
33690;SDS011;20026;50.058;18.428;2023-04-15T02:50:43;21.58;;;8.43;;
33690;SDS011;20026;50.058;18.428;2023-04-15T02:53:09;22.50;;;14.30;;
33690;SDS011;20026;50.058;18.428;2023-04-15T02:55:35;14.80;;;9.95;;
33690;SDS011;20026;50.058;18.428;2023-04-15T02:58:01;12.05;;;7.95;;
33690;SDS011;20026;50.058;18.428;2023-04-15T03:00:27;12.18;;;8.45;;
33690;SDS011;20026;50.058;18.428;2023-04-15T03:03:12;18.38;;;13.98;;
33690;SDS011;20026;50.058;18.428;2023-04-15T03:05:39;8.90;;;7.22;;
33690;SDS011;20026;50.058;18.428;2023-04-15T03:08:05;6.63;;;5.80;;
33690;SDS011;20026;50.058;18.428;2023-04-15T03:10:31;7.22;;;5.60;;
33690;SDS011;20026;50.058;18.428;2023-04-15T03:12:57;14.55;;;6.03;;
33690;SDS011;20026;50.058;18.428;2023-04-15T03:15:23;22.65;;;11.45;;
33690;SDS011;20026;50.058;18.428;2023-04-15T03:17:49;26.88;;;17.83;;
33690;SDS011;20026;50.058;18.428;2023-04-15T03:20:15;25.55;;;13.98;;
33690;SDS011;20026;50.058;18.428;2023-04-15T03:22:41;17.52;;;12.30;;
33690;SDS011;20026;50.058;18.428;2023-04-15T03:25:07;15.23;;;10.23;;
33690;SDS011;20026;50.058;18.428;2023-04-15T03:27:33;15.90;;;11.65;;
33690;SDS011;20026;50.058;18.428;2023-04-15T03:29:59;21.35;;;13.27;;
33690;SDS011;20026;50.058;18.428;2023-04-15T03:32:25;22.63;;;15.18;;
33690;SDS011;20026;50.058;18.428;2023-04-15T03:34:51;26.95;;;17.30;;
33690;SDS011;20026;50.058;18.428;2023-04-15T03:37:17;31.25;;;19.35;;
33690;SDS011;20026;50.058;18.428;2023-04-15T03:39:43;32.95;;;20.02;;
33690;SDS011;20026;50.058;18.428;2023-04-15T03:42:10;27.52;;;17.92;;
33690;SDS011;20026;50.058;18.428;2023-04-15T03:44:36;25.85;;;17.77;;
33690;SDS011;20026;50.058;18.428;2023-04-15T03:47:02;19.13;;;12.75;;
33690;SDS011;20026;50.058;18.428;2023-04-15T03:49:28;26.02;;;14.93;;
33690;SDS011;20026;50.058;18.428;2023-04-15T03:51:54;21.42;;;14.57;;
33690;SDS011;20026;50.058;18.428;2023-04-15T03:54:20;21.02;;;13.63;;
33690;SDS011;20026;50.058;18.428;2023-04-15T03:56:46;22.13;;;13.25;;
33690;SDS011;20026;50.058;18.428;2023-04-15T03:59:12;17.90;;;12.10;;
33690;SDS011;20026;50.058;18.428;2023-04-15T04:01:38;14.73;;;11.18;;
33690;SDS011;20026;50.058;18.428;2023-04-15T04:04:04;14.55;;;11.38;;
33690;SDS011;20026;50.058;18.428;2023-04-15T04:06:30;16.75;;;12.80;;
33690;SDS011;20026;50.058;18.428;2023-04-15T04:08:56;19.27;;;14.93;;
33690;SDS011;20026;50.058;18.428;2023-04-15T04:11:22;22.00;;;16.85;;
33690;SDS011;20026;50.058;18.428;2023-04-15T04:13:48;23.88;;;18.67;;
33690;SDS011;20026;50.058;18.428;2023-04-15T04:16:14;25.30;;;19.35;;
33690;SDS011;20026;50.058;18.428;2023-04-15T04:18:41;30.83;;;22.45;;
33690;SDS011;20026;50.058;18.428;2023-04-15T04:21:07;30.45;;;22.33;;
33690;SDS011;20026;50.058;18.428;2023-04-15T04:23:33;31.33;;;22.58;;
33690;SDS011;20026;50.058;18.428;2023-04-15T04:25:59;36.65;;;23.95;;
33690;SDS011;20026;50.058;18.428;2023-04-15T04:28:25;44.38;;;28.50;;
33690;SDS011;20026;50.058;18.428;2023-04-15T04:30:51;47.05;;;31.50;;
33690;SDS011;20026;50.058;18.428;2023-04-15T04:33:17;51.10;;;33.58;;
33690;SDS011;20026;50.058;18.428;2023-04-15T04:35:44;51.38;;;35.13;;
33690;SDS011;20026;50.058;18.428;2023-04-15T04:38:10;66.88;;;43.03;;
33690;SDS011;20026;50.058;18.428;2023-04-15T04:40:36;74.88;;;45.20;;
33690;SDS011;20026;50.058;18.428;2023-04-15T04:43:02;79.07;;;48.63;;
33690;SDS011;20026;50.058;18.428;2023-04-15T04:45:28;75.53;;;47.25;;
33690;SDS011;20026;50.058;18.428;2023-04-15T04:47:54;70.50;;;45.97;;
33690;SDS011;20026;50.058;18.428;2023-04-15T04:50:20;83.63;;;49.03;;
33690;SDS011;20026;50.058;18.428;2023-04-15T04:52:46;83.20;;;52.92;;
33690;SDS011;20026;50.058;18.428;2023-04-15T04:55:12;89.85;;;57.22;;
33690;SDS011;20026;50.058;18.428;2023-04-15T04:57:38;90.85;;;59.03;;
33690;SDS011;20026;50.058;18.428;2023-04-15T05:00:05;81.80;;;54.45;;
33690;SDS011;20026;50.058;18.428;2023-04-15T05:02:32;78.55;;;54.80;;
33690;SDS011;20026;50.058;18.428;2023-04-15T05:04:58;77.50;;;53.22;;
33690;SDS011;20026;50.058;18.428;2023-04-15T05:07:25;79.60;;;56.85;;
33690;SDS011;20026;50.058;18.428;2023-04-15T05:09:51;107.82;;;75.85;;
33690;SDS011;20026;50.058;18.428;2023-04-15T05:12:17;139.18;;;90.68;;
33690;SDS011;20026;50.058;18.428;2023-04-15T05:14:43;142.65;;;91.05;;
33690;SDS011;20026;50.058;18.428;2023-04-15T05:17:10;166.57;;;101.82;;
33690;SDS011;20026;50.058;18.428;2023-04-15T05:19:36;154.82;;;95.18;;
33690;SDS011;20026;50.058;18.428;2023-04-15T05:22:02;143.10;;;91.50;;
33690;SDS011;20026;50.058;18.428;2023-04-15T05:24:28;131.38;;;85.03;;
33690;SDS011;20026;50.058;18.428;2023-04-15T05:26:54;124.35;;;78.70;;
33690;SDS011;20026;50.058;18.428;2023-04-15T05:29:21;139.02;;;75.78;;
33690;SDS011;20026;50.058;18.428;2023-04-15T05:31:47;142.73;;;71.20;;
33690;SDS011;20026;50.058;18.428;2023-04-15T05:34:13;118.88;;;59.65;;
33690;SDS011;20026;50.058;18.428;2023-04-15T05:36:40;124.28;;;60.00;;
33690;SDS011;20026;50.058;18.428;2023-04-15T05:39:06;94.47;;;51.95;;
33690;SDS011;20026;50.058;18.428;2023-04-15T05:41:33;49.20;;;30.40;;
33690;SDS011;20026;50.058;18.428;2023-04-15T05:43:59;43.97;;;28.23;;
33690;SDS011;20026;50.058;18.428;2023-04-15T05:46:25;34.90;;;23.83;;
33690;SDS011;20026;50.058;18.428;2023-04-15T05:48:51;34.65;;;22.60;;
33690;SDS011;20026;50.058;18.428;2023-04-15T05:51:17;33.20;;;23.00;;
33690;SDS011;20026;50.058;18.428;2023-04-15T05:53:43;41.42;;;25.95;;
33690;SDS011;20026;50.058;18.428;2023-04-15T05:56:10;43.05;;;24.58;;
33690;SDS011;20026;50.058;18.428;2023-04-15T05:58:36;35.47;;;21.63;;
33690;SDS011;20026;50.058;18.428;2023-04-15T06:01:02;29.50;;;13.02;;
33690;SDS011;20026;50.058;18.428;2023-04-15T06:03:28;26.52;;;12.80;;
33690;SDS011;20026;50.058;18.428;2023-04-15T06:05:54;40.83;;;17.33;;
33690;SDS011;20026;50.058;18.428;2023-04-15T06:08:20;29.88;;;16.88;;
33690;SDS011;20026;50.058;18.428;2023-04-15T06:10:46;35.22;;;15.35;;
33690;SDS011;20026;50.058;18.428;2023-04-15T06:13:12;21.08;;;13.27;;
33690;SDS011;20026;50.058;18.428;2023-04-15T06:15:38;22.77;;;12.15;;
33690;SDS011;20026;50.058;18.428;2023-04-15T06:18:04;84.55;;;37.63;;
33690;SDS011;20026;50.058;18.428;2023-04-15T06:20:30;195.88;;;75.22;;
33690;SDS011;20026;50.058;18.428;2023-04-15T06:22:56;37.08;;;16.65;;
33690;SDS011;20026;50.058;18.428;2023-04-15T06:25:22;56.53;;;22.67;;
33690;SDS011;20026;50.058;18.428;2023-04-15T06:27:48;78.03;;;28.58;;
33690;SDS011;20026;50.058;18.428;2023-04-15T06:30:14;37.25;;;15.75;;
33690;SDS011;20026;50.058;18.428;2023-04-15T06:32:41;151.63;;;60.95;;
33690;SDS011;20026;50.058;18.428;2023-04-15T06:35:07;8.68;;;5.47;;
33690;SDS011;20026;50.058;18.428;2023-04-15T06:37:33;146.05;;;46.72;;
33690;SDS011;20026;50.058;18.428;2023-04-15T06:39:59;24.27;;;11.30;;
33690;SDS011;20026;50.058;18.428;2023-04-15T06:42:25;195.43;;;64.50;;
33690;SDS011;20026;50.058;18.428;2023-04-15T06:44:51;54.55;;;21.02;;
33690;SDS011;20026;50.058;18.428;2023-04-15T06:47:17;32.10;;;14.30;;
33690;SDS011;20026;50.058;18.428;2023-04-15T06:49:43;16.77;;;9.45;;
33690;SDS011;20026;50.058;18.428;2023-04-15T06:52:09;44.13;;;19.23;;
33690;SDS011;20026;50.058;18.428;2023-04-15T06:54:36;17.45;;;10.35;;
33690;SDS011;20026;50.058;18.428;2023-04-15T06:57:02;15.85;;;8.35;;
33690;SDS011;20026;50.058;18.428;2023-04-15T06:59:28;27.85;;;11.23;;
33690;SDS011;20026;50.058;18.428;2023-04-15T07:01:54;55.33;;;21.08;;
33690;SDS011;20026;50.058;18.428;2023-04-15T07:04:20;18.95;;;8.77;;
33690;SDS011;20026;50.058;18.428;2023-04-15T07:06:46;95.93;;;35.17;;
33690;SDS011;20026;50.058;18.428;2023-04-15T07:09:12;31.77;;;12.15;;
33690;SDS011;20026;50.058;18.428;2023-04-15T07:11:39;3.72;;;2.28;;
33690;SDS011;20026;50.058;18.428;2023-04-15T07:14:05;51.03;;;19.58;;
33690;SDS011;20026;50.058;18.428;2023-04-15T07:16:31;26.80;;;10.85;;
33690;SDS011;20026;50.058;18.428;2023-04-15T07:18:57;70.75;;;28.23;;
33690;SDS011;20026;50.058;18.428;2023-04-15T07:21:24;17.50;;;7.60;;
33690;SDS011;20026;50.058;18.428;2023-04-15T07:23:51;38.58;;;16.30;;
33690;SDS011;20026;50.058;18.428;2023-04-15T07:26:17;31.17;;;12.60;;
33690;SDS011;20026;50.058;18.428;2023-04-15T07:28:43;80.70;;;33.03;;
33690;SDS011;20026;50.058;18.428;2023-04-15T07:31:10;32.50;;;14.13;;
33690;SDS011;20026;50.058;18.428;2023-04-15T07:33:36;57.80;;;25.30;;
33690;SDS011;20026;50.058;18.428;2023-04-15T07:36:02;8.32;;;4.35;;
33690;SDS011;20026;50.058;18.428;2023-04-15T07:38:28;149.45;;;65.72;;
33690;SDS011;20026;50.058;18.428;2023-04-15T07:40:54;17.70;;;8.48;;
33690;SDS011;20026;50.058;18.428;2023-04-15T07:43:20;29.85;;;13.45;;
33690;SDS011;20026;50.058;18.428;2023-04-15T07:45:46;52.33;;;22.25;;
33690;SDS011;20026;50.058;18.428;2023-04-15T07:48:12;29.83;;;14.02;;
33690;SDS011;20026;50.058;18.428;2023-04-15T07:50:38;15.63;;;5.90;;
33690;SDS011;20026;50.058;18.428;2023-04-15T07:53:05;17.77;;;9.05;;
33690;SDS011;20026;50.058;18.428;2023-04-15T07:55:31;15.38;;;8.00;;
33690;SDS011;20026;50.058;18.428;2023-04-15T07:57:57;4.28;;;1.38;;
33690;SDS011;20026;50.058;18.428;2023-04-15T08:00:23;16.67;;;8.77;;
33690;SDS011;20026;50.058;18.428;2023-04-15T08:02:50;3.00;;;1.58;;
33690;SDS011;20026;50.058;18.428;2023-04-15T08:05:17;21.90;;;10.25;;
33690;SDS011;20026;50.058;18.428;2023-04-15T08:07:43;9.90;;;4.55;;
33690;SDS011;20026;50.058;18.428;2023-04-15T08:10:10;42.60;;;22.45;;
33690;SDS011;20026;50.058;18.428;2023-04-15T08:12:36;23.17;;;10.88;;
33690;SDS011;20026;50.058;18.428;2023-04-15T08:15:02;6.05;;;2.30;;
33690;SDS011;20026;50.058;18.428;2023-04-15T08:17:30;23.95;;;10.93;;
33690;SDS011;20026;50.058;18.428;2023-04-15T08:19:56;10.98;;;4.18;;
33690;SDS011;20026;50.058;18.428;2023-04-15T08:22:22;11.57;;;4.60;;
33690;SDS011;20026;50.058;18.428;2023-04-15T08:24:48;1.92;;;1.38;;
33690;SDS011;20026;50.058;18.428;2023-04-15T08:27:14;10.98;;;7.60;;
33690;SDS011;20026;50.058;18.428;2023-04-15T08:29:40;9.38;;;4.35;;
33690;SDS011;20026;50.058;18.428;2023-04-15T08:32:06;4.78;;;2.47;;
33690;SDS011;20026;50.058;18.428;2023-04-15T08:34:32;5.93;;;2.92;;
33690;SDS011;20026;50.058;18.428;2023-04-15T08:36:58;6.75;;;2.22;;
33690;SDS011;20026;50.058;18.428;2023-04-15T08:39:34;2.83;;;1.92;;
33690;SDS011;20026;50.058;18.428;2023-04-15T08:42:00;6.55;;;2.95;;
33690;SDS011;20026;50.058;18.428;2023-04-15T08:44:29;2.10;;;1.80;;
33690;SDS011;20026;50.058;18.428;2023-04-15T08:47:01;6.82;;;4.43;;
33690;SDS011;20026;50.058;18.428;2023-04-15T08:49:27;8.32;;;4.93;;
33690;SDS011;20026;50.058;18.428;2023-04-15T08:51:53;6.20;;;2.40;;
33690;SDS011;20026;50.058;18.428;2023-04-15T08:54:20;2.63;;;1.48;;
33690;SDS011;20026;50.058;18.428;2023-04-15T08:56:47;2.03;;;1.40;;
33690;SDS011;20026;50.058;18.428;2023-04-15T08:59:13;1.83;;;1.50;;
33690;SDS011;20026;50.058;18.428;2023-04-15T09:01:40;1.35;;;1.00;;
33690;SDS011;20026;50.058;18.428;2023-04-15T09:04:06;27.55;;;14.82;;
33690;SDS011;20026;50.058;18.428;2023-04-15T09:06:33;5.72;;;4.60;;
33690;SDS011;20026;50.058;18.428;2023-04-15T09:08:59;1.88;;;1.40;;
33690;SDS011;20026;50.058;18.428;2023-04-15T09:11:25;7.22;;;5.13;;
33690;SDS011;20026;50.058;18.428;2023-04-15T09:13:51;3.88;;;3.10;;
33690;SDS011;20026;50.058;18.428;2023-04-15T09:16:17;4.22;;;2.72;;
33690;SDS011;20026;50.058;18.428;2023-04-15T09:18:43;20.35;;;13.20;;
33690;SDS011;20026;50.058;18.428;2023-04-15T09:21:13;11.05;;;5.20;;
33690;SDS011;20026;50.058;18.428;2023-04-15T09:23:41;9.68;;;4.93;;
33690;SDS011;20026;50.058;18.428;2023-04-15T09:26:18;2.22;;;1.50;;
33690;SDS011;20026;50.058;18.428;2023-04-15T09:28:44;4.13;;;2.70;;
33690;SDS011;20026;50.058;18.428;2023-04-15T09:31:19;2.05;;;1.50;;
33690;SDS011;20026;50.058;18.428;2023-04-15T09:33:54;63.90;;;4.93;;
33690;SDS011;20026;50.058;18.428;2023-04-15T09:36:21;44.55;;;8.10;;
33690;SDS011;20026;50.058;18.428;2023-04-15T09:38:58;16.35;;;8.63;;
33690;SDS011;20026;50.058;18.428;2023-04-15T09:41:25;62.03;;;14.82;;
33690;SDS011;20026;50.058;18.428;2023-04-15T09:43:52;3.92;;;3.10;;
33690;SDS011;20026;50.058;18.428;2023-04-15T09:46:18;7.07;;;4.93;;
33690;SDS011;20026;50.058;18.428;2023-04-15T09:48:44;11.75;;;4.75;;
33690;SDS011;20026;50.058;18.428;2023-04-15T09:51:10;12.55;;;6.10;;
33690;SDS011;20026;50.058;18.428;2023-04-15T09:53:36;17.23;;;9.75;;
33690;SDS011;20026;50.058;18.428;2023-04-15T09:56:02;13.60;;;5.18;;
33690;SDS011;20026;50.058;18.428;2023-04-15T09:58:32;20.70;;;10.20;;
33690;SDS011;20026;50.058;18.428;2023-04-15T10:00:59;15.90;;;9.50;;
33690;SDS011;20026;50.058;18.428;2023-04-15T10:03:29;38.55;;;24.05;;
33690;SDS011;20026;50.058;18.428;2023-04-15T10:06:10;4.07;;;3.10;;
33690;SDS011;20026;50.058;18.428;2023-04-15T10:08:37;2.70;;;1.92;;
33690;SDS011;20026;50.058;18.428;2023-04-15T10:11:03;2.85;;;1.63;;
33690;SDS011;20026;50.058;18.428;2023-04-15T10:13:30;9.13;;;3.40;;
33690;SDS011;20026;50.058;18.428;2023-04-15T10:16:04;7.13;;;2.92;;
33690;SDS011;20026;50.058;18.428;2023-04-15T10:18:32;18.92;;;7.90;;
33690;SDS011;20026;50.058;18.428;2023-04-15T10:20:59;9.80;;;2.60;;
33690;SDS011;20026;50.058;18.428;2023-04-15T10:23:25;20.05;;;7.88;;
33690;SDS011;20026;50.058;18.428;2023-04-15T10:25:52;12.98;;;5.05;;
33690;SDS011;20026;50.058;18.428;2023-04-15T10:28:19;14.40;;;5.15;;
33690;SDS011;20026;50.058;18.428;2023-04-15T10:30:47;9.80;;;4.55;;
33690;SDS011;20026;50.058;18.428;2023-04-15T10:33:14;10.63;;;4.90;;
33690;SDS011;20026;50.058;18.428;2023-04-15T10:35:41;6.72;;;2.72;;
33690;SDS011;20026;50.058;18.428;2023-04-15T10:40:53;9.07;;;2.40;;
33690;SDS011;20026;50.058;18.428;2023-04-15T10:43:37;25.13;;;3.30;;
33690;SDS011;20026;50.058;18.428;2023-04-15T10:46:04;26.85;;;4.00;;
33690;SDS011;20026;50.058;18.428;2023-04-15T10:48:30;13.98;;;3.35;;
33690;SDS011;20026;50.058;18.428;2023-04-15T10:50:57;25.10;;;7.15;;
33690;SDS011;20026;50.058;18.428;2023-04-15T10:53:29;11.90;;;4.40;;
33690;SDS011;20026;50.058;18.428;2023-04-15T10:58:22;182.98;;;12.38;;
33690;SDS011;20026;50.058;18.428;2023-04-15T11:00:49;32.88;;;4.57;;
33690;SDS011;20026;50.058;18.428;2023-04-15T11:05:48;24.92;;;3.42;;
33690;SDS011;20026;50.058;18.428;2023-04-15T11:15:42;235.23;;;130.70;;
33690;SDS011;20026;50.058;18.428;2023-04-15T11:20:43;10.15;;;2.40;;
33690;SDS011;20026;50.058;18.428;2023-04-15T11:23:10;14.07;;;2.42;;
33690;SDS011;20026;50.058;18.428;2023-04-15T11:25:36;14.70;;;2.00;;
33690;SDS011;20026;50.058;18.428;2023-04-15T11:28:03;9.05;;;2.40;;
33690;SDS011;20026;50.058;18.428;2023-04-15T11:30:30;32.67;;;9.90;;
33690;SDS011;20026;50.058;18.428;2023-04-15T11:32:58;18.00;;;3.83;;
33690;SDS011;20026;50.058;18.428;2023-04-15T11:35:24;35.88;;;13.10;;
33690;SDS011;20026;50.058;18.428;2023-04-15T11:37:50;92.93;;;35.75;;
33690;SDS011;20026;50.058;18.428;2023-04-15T11:40:21;49.88;;;20.58;;
33690;SDS011;20026;50.058;18.428;2023-04-15T11:43:02;27.80;;;10.88;;
33690;SDS011;20026;50.058;18.428;2023-04-15T11:45:28;9.55;;;3.65;;
33690;SDS011;20026;50.058;18.428;2023-04-15T11:47:57;36.80;;;14.68;;
33690;SDS011;20026;50.058;18.428;2023-04-15T11:50:29;52.75;;;21.50;;
33690;SDS011;20026;50.058;18.428;2023-04-15T11:52:59;12.23;;;5.65;;
33690;SDS011;20026;50.058;18.428;2023-04-15T11:55:26;5.88;;;2.80;;
33690;SDS011;20026;50.058;18.428;2023-04-15T12:00:56;9.02;;;3.92;;
33690;SDS011;20026;50.058;18.428;2023-04-15T12:03:26;2.20;;;1.98;;
33690;SDS011;20026;50.058;18.428;2023-04-15T12:11:15;8.40;;;3.40;;
33690;SDS011;20026;50.058;18.428;2023-04-15T12:13:46;7.60;;;3.63;;
33690;SDS011;20026;50.058;18.428;2023-04-15T12:16:12;3.75;;;1.70;;
33690;SDS011;20026;50.058;18.428;2023-04-15T12:18:38;2.47;;;1.63;;
33690;SDS011;20026;50.058;18.428;2023-04-15T12:21:10;6.03;;;2.67;;
33690;SDS011;20026;50.058;18.428;2023-04-15T12:23:37;5.18;;;3.00;;
33690;SDS011;20026;50.058;18.428;2023-04-15T12:26:04;4.07;;;2.08;;
33690;SDS011;20026;50.058;18.428;2023-04-15T12:28:32;42.10;;;17.23;;
33690;SDS011;20026;50.058;18.428;2023-04-15T12:31:05;87.80;;;34.72;;
33690;SDS011;20026;50.058;18.428;2023-04-15T12:33:32;13.75;;;4.85;;
33690;SDS011;20026;50.058;18.428;2023-04-15T12:35:58;11.13;;;2.92;;
33690;SDS011;20026;50.058;18.428;2023-04-15T12:38:24;7.03;;;2.10;;
33690;SDS011;20026;50.058;18.428;2023-04-15T12:40:50;81.97;;;6.65;;
33690;SDS011;20026;50.058;18.428;2023-04-15T12:43:16;13.07;;;5.85;;
33690;SDS011;20026;50.058;18.428;2023-04-15T12:45:42;7.82;;;3.10;;
33690;SDS011;20026;50.058;18.428;2023-04-15T12:48:08;29.10;;;11.13;;
33690;SDS011;20026;50.058;18.428;2023-04-15T12:50:34;9.90;;;4.00;;
33690;SDS011;20026;50.058;18.428;2023-04-15T12:53:02;2.33;;;1.50;;
33690;SDS011;20026;50.058;18.428;2023-04-15T12:55:28;11.00;;;4.32;;
33690;SDS011;20026;50.058;18.428;2023-04-15T12:57:55;1.63;;;1.50;;
33690;SDS011;20026;50.058;18.428;2023-04-15T13:00:21;19.98;;;6.43;;
33690;SDS011;20026;50.058;18.428;2023-04-15T13:02:47;8.20;;;3.00;;
33690;SDS011;20026;50.058;18.428;2023-04-15T13:05:13;22.25;;;12.05;;
33690;SDS011;20026;50.058;18.428;2023-04-15T13:07:40;10.25;;;6.07;;
33690;SDS011;20026;50.058;18.428;2023-04-15T13:10:06;301.38;;;105.07;;
33690;SDS011;20026;50.058;18.428;2023-04-15T13:12:32;39.28;;;17.13;;
33690;SDS011;20026;50.058;18.428;2023-04-15T13:15:04;14.23;;;8.17;;
33690;SDS011;20026;50.058;18.428;2023-04-15T13:17:30;16.42;;;8.25;;
33690;SDS011;20026;50.058;18.428;2023-04-15T13:19:56;9.45;;;4.75;;
33690;SDS011;20026;50.058;18.428;2023-04-15T13:22:23;8.23;;;3.13;;
33690;SDS011;20026;50.058;18.428;2023-04-15T13:24:49;4.72;;;2.85;;
33690;SDS011;20026;50.058;18.428;2023-04-15T13:27:15;6.95;;;4.38;;
33690;SDS011;20026;50.058;18.428;2023-04-15T13:29:41;14.15;;;7.28;;
33690;SDS011;20026;50.058;18.428;2023-04-15T13:32:07;12.07;;;4.75;;
33690;SDS011;20026;50.058;18.428;2023-04-15T13:34:33;5.97;;;3.42;;
33690;SDS011;20026;50.058;18.428;2023-04-15T13:37:04;3.67;;;2.00;;
33690;SDS011;20026;50.058;18.428;2023-04-15T13:39:31;6.47;;;3.70;;
33690;SDS011;20026;50.058;18.428;2023-04-15T13:41:57;3.60;;;2.85;;
33690;SDS011;20026;50.058;18.428;2023-04-15T13:44:23;2.90;;;2.17;;
33690;SDS011;20026;50.058;18.428;2023-04-15T13:46:49;4.18;;;3.03;;
33690;SDS011;20026;50.058;18.428;2023-04-15T13:49:15;20.92;;;14.65;;
33690;SDS011;20026;50.058;18.428;2023-04-15T13:51:41;5.10;;;3.17;;
33690;SDS011;20026;50.058;18.428;2023-04-15T13:54:07;5.15;;;3.03;;
33690;SDS011;20026;50.058;18.428;2023-04-15T13:56:33;22.73;;;12.15;;
33690;SDS011;20026;50.058;18.428;2023-04-15T13:58:59;12.25;;;5.97;;
33690;SDS011;20026;50.058;18.428;2023-04-15T14:01:26;6.22;;;2.90;;
33690;SDS011;20026;50.058;18.428;2023-04-15T14:03:52;3.38;;;2.20;;
33690;SDS011;20026;50.058;18.428;2023-04-15T14:06:18;4.32;;;2.97;;
33690;SDS011;20026;50.058;18.428;2023-04-15T14:08:45;3.92;;;2.58;;
33690;SDS011;20026;50.058;18.428;2023-04-15T14:11:11;5.95;;;3.55;;
33690;SDS011;20026;50.058;18.428;2023-04-15T14:13:37;6.78;;;3.30;;
33690;SDS011;20026;50.058;18.428;2023-04-15T14:16:03;14.15;;;5.70;;
33690;SDS011;20026;50.058;18.428;2023-04-15T14:18:29;13.95;;;6.97;;
33690;SDS011;20026;50.058;18.428;2023-04-15T14:20:55;6.75;;;4.20;;
33690;SDS011;20026;50.058;18.428;2023-04-15T14:23:21;12.50;;;5.60;;
33690;SDS011;20026;50.058;18.428;2023-04-15T14:25:47;21.35;;;11.15;;
33690;SDS011;20026;50.058;18.428;2023-04-15T14:28:14;11.45;;;4.03;;
33690;SDS011;20026;50.058;18.428;2023-04-15T14:30:40;14.32;;;4.13;;
33690;SDS011;20026;50.058;18.428;2023-04-15T14:33:06;12.27;;;4.78;;
33690;SDS011;20026;50.058;18.428;2023-04-15T14:35:32;36.13;;;8.00;;
33690;SDS011;20026;50.058;18.428;2023-04-15T14:37:58;32.55;;;6.80;;
33690;SDS011;20026;50.058;18.428;2023-04-15T14:40:24;18.85;;;7.22;;